Time;durP1;ratioP1;P1;durP2;ratioP2;P2;SDS_P1;SDS_P2;PMS_P1;PMS_P2;Temp;Humidity;BMP_temperature;BMP_pressure;BME280_temperature;BME280_humidity;BME280_pressure;Samples;Min_cycle;Max_cycle;Signal;HPM_P1;HPM_P2
2023/12/07 00:00:20;;;;;;;49.43;24.70;;;-1.90;99.90;-3.00;100706;;;;577772;246;25088;-79
2023/12/07 00:02:44;;;;;;;45.60;22.93;;;-1.70;99.90;-3.00;100706;;;;567327;249;24115;-81
2023/12/07 00:05:12;;;;;;;46.00;23.83;;;-1.90;99.90;-3.00;100715;;;;567859;249;24091;-83
2023/12/07 00:07:40;;;;;;;47.63;23.80;;;-1.90;99.90;-3.00;100703;;;;577838;246;24087;-82
2023/12/07 00:10:08;;;;;;;44.87;22.67;;;-1.80;99.90;-3.00;100709;;;;567353;249;24134;-82
2023/12/07 00:12:36;;;;;;;41.73;23.23;;;-1.90;99.90;-3.00;100705;;;;575870;246;24048;-81
2023/12/07 00:15:04;;;;;;;48.10;23.90;;;-1.80;99.90;-3.00;100706;;;;567543;249;24106;-79
2023/12/07 00:17:32;;;;;;;52.72;28.92;;;-1.70;99.90;-3.00;100712;;;;571255;246;35492;-78
2023/12/07 00:20:00;;;;;;;33.33;17.73;;;-1.80;99.90;-3.00;100710;;;;567149;249;24071;-82
2023/12/07 00:22:28;;;;;;;40.40;22.93;;;-1.80;99.90;-3.00;100712;;;;577389;246;24108;-78
2023/12/07 00:24:56;;;;;;;45.30;24.27;;;-1.80;99.90;-2.90;100712;;;;567241;249;24047;-78
2023/12/07 00:27:24;;;;;;;43.70;21.97;;;-1.80;99.90;-2.90;100708;;;;567298;249;24083;-78
2023/12/07 00:29:51;;;;;;;43.43;21.47;;;-1.80;99.90;-3.00;100709;;;;567182;249;24048;-79
2023/12/07 00:32:19;;;;;;;44.40;22.53;;;-1.90;99.90;-3.00;100703;;;;569063;248;24048;-77
2023/12/07 00:34:48;;;;;;;43.93;22.20;;;-1.80;99.90;-3.00;100701;;;;568275;248;24068;-77
2023/12/07 00:37:16;;;;;;;46.80;23.10;;;-1.80;99.90;-3.00;100700;;;;567873;248;24083;-77
2023/12/07 00:39:45;;;;;;;49.50;23.43;;;-1.80;99.90;-3.00;100710;;;;568018;248;24118;-78
2023/12/07 00:42:13;;;;;;;44.13;22.20;;;-1.80;99.90;-3.00;100715;;;;567807;248;24192;-79
2023/12/07 00:44:41;;;;;;;45.43;21.93;;;-1.80;99.90;-2.90;100717;;;;567793;248;24120;-83
2023/12/07 00:47:09;;;;;;;49.53;24.40;;;-1.70;99.90;-3.00;100719;;;;568064;248;24059;-82
2023/12/07 00:49:41;;;;;;;46.40;23.10;;;-1.80;99.90;-2.90;100716;;;;567905;249;24095;-84
2023/12/07 00:52:12;;;;;;;46.03;22.67;;;-1.90;99.90;-3.00;100717;;;;567531;249;24069;-82
2023/12/07 00:54:37;;;;;;;42.10;22.87;;;-1.60;99.90;-3.00;100723;;;;567080;249;24160;-82
2023/12/07 00:57:09;;;;;;;49.73;23.23;;;-1.90;99.90;-2.90;100724;;;;567619;249;24088;-81
2023/12/07 00:59:36;;;;;;;47.33;23.13;;;-1.80;99.90;-2.90;100714;;;;567210;249;24081;-79
2023/12/07 01:02:06;;;;;;;49.30;23.63;;;-1.80;99.90;-3.00;100714;;;;567167;249;24065;-80
2023/12/07 01:04:34;;;;;;;47.17;22.93;;;-1.80;99.90;-2.90;100719;;;;570743;249;24091;-80
2023/12/07 01:07:02;;;;;;;43.30;23.03;;;-1.60;99.90;-2.90;100717;;;;567659;249;24053;-80
2023/12/07 01:09:30;;;;;;;44.07;22.17;;;-1.70;99.90;-2.90;100723;;;;567177;249;24075;-80
2023/12/07 01:12:02;;;;;;;49.37;24.93;;;-1.70;99.90;-2.90;100720;;;;567089;249;24080;-83
2023/12/07 01:14:28;;;;;;;42.37;23.33;;;-1.70;99.90;-2.90;100720;;;;566961;249;24074;-83
2023/12/07 01:16:56;;;;;;;46.83;22.47;;;-1.60;99.90;-2.90;100720;;;;567523;249;24077;-82
2023/12/07 01:19:24;;;;;;;44.13;22.20;;;-1.60;99.90;-2.90;100729;;;;567540;249;24105;-82
2023/12/07 01:21:51;;;;;;;41.63;21.80;;;-1.80;99.90;-2.90;100733;;;;567162;249;24056;-81
2023/12/07 01:24:19;;;;;;;40.37;22.10;;;-1.50;99.90;-2.80;100729;;;;567164;249;24099;-77
2023/12/07 01:26:47;;;;;;;48.60;23.00;;;-1.50;99.90;-2.80;100732;;;;567191;249;24063;-78
2023/12/07 01:29:15;;;;;;;48.47;23.83;;;-1.70;99.90;-2.80;100743;;;;567155;249;24164;-80
2023/12/07 01:31:43;;;;;;;45.30;22.70;;;-1.70;99.90;-2.80;100738;;;;567251;249;24107;-77
2023/12/07 01:34:11;;;;;;;56.57;25.00;;;-1.70;99.90;-2.80;100733;;;;567079;249;24077;-79
2023/12/07 01:36:39;;;;;;;45.30;22.73;;;-1.70;99.90;-2.90;100738;;;;567231;249;24065;-79
2023/12/07 01:39:08;;;;;;;38.90;20.00;;;-1.70;99.90;-2.90;100737;;;;567179;249;24069;-78
2023/12/07 01:41:39;;;;;;;41.33;21.73;;;-1.70;99.90;-2.90;100728;;;;567069;249;24097;-78
2023/12/07 01:44:03;;;;;;;44.80;22.93;;;-1.70;99.90;-2.80;100739;;;;568188;248;24059;-78
2023/12/07 01:46:31;;;;;;;39.80;20.67;;;-1.70;99.90;-2.80;100737;;;;568020;248;24063;-78
2023/12/07 01:49:02;;;;;;;42.33;20.77;;;-1.60;99.90;-2.80;100728;;;;568182;248;24084;-78
2023/12/07 01:51:28;;;;;;;39.10;20.97;;;-1.60;99.90;-2.80;100739;;;;568025;248;24055;-80
2023/12/07 01:53:59;;;;;;;45.97;23.40;;;-1.60;99.90;-2.80;100731;;;;567585;248;24081;-78
2023/12/07 01:56:24;;;;;;;43.83;22.67;;;-1.70;99.90;-2.80;100737;;;;566937;248;24059;-79
2023/12/07 01:58:52;;;;;;;52.15;29.30;;;-1.60;99.90;-2.80;100736;;;;562677;248;35211;-79
2023/12/07 02:01:20;;;;;;;17.27;8.83;;;-1.60;99.90;-2.80;100734;;;;567576;249;24070;-79
2023/12/07 02:03:51;;;;;;;41.63;20.10;;;-1.60;99.90;-2.80;100733;;;;567470;249;24066;-79
2023/12/07 02:06:19;;;;;;;36.77;19.37;;;-1.60;99.90;-2.70;100731;;;;567253;249;24122;-80
2023/12/07 02:08:47;;;;;;;41.10;21.93;;;-1.60;99.90;-2.70;100735;;;;567089;249;24062;-79
2023/12/07 02:11:12;;;;;;;43.80;23.13;;;-1.60;99.90;-2.70;100725;;;;562948;249;24056;-79
2023/12/07 02:13:40;;;;;;;44.07;22.73;;;-1.60;99.90;-2.80;100721;;;;567532;249;24055;-80
2023/12/07 02:16:09;;;;;;;45.13;21.77;;;-1.60;99.90;-2.70;100725;;;;567294;249;24069;-79
2023/12/07 02:18:39;;;;;;;37.50;20.30;;;-1.60;99.90;-2.70;100737;;;;567295;249;24048;-78
2023/12/07 02:21:17;;;;;;;41.80;21.63;;;-1.60;99.90;-2.70;100741;;;;567055;249;25181;-78
2023/12/07 02:23:45;;;;;;;44.87;21.60;;;-1.50;99.90;-2.70;100734;;;;567143;249;24112;-78
2023/12/07 02:26:50;;;;;;;49.03;21.87;;;-1.60;99.90;-2.70;100740;;;;567689;249;24074;-78
2023/12/07 02:29:17;;;;;;;39.37;21.73;;;-1.50;99.90;-2.70;100736;;;;567410;249;25117;-80
2023/12/07 02:31:48;;;;;;;42.77;20.43;;;-1.60;99.90;-2.70;100742;;;;567572;249;24233;-79
2023/12/07 02:34:17;;;;;;;44.07;21.03;;;-1.60;99.90;-2.70;100742;;;;567416;249;24074;-79
2023/12/07 02:36:41;;;;;;;41.83;21.90;;;-1.60;99.90;-2.70;100739;;;;567074;249;24071;-80
2023/12/07 02:39:12;;;;;;;43.17;22.20;;;-1.50;99.90;-2.70;100745;;;;567386;249;24112;-80
2023/12/07 02:41:37;;;;;;;45.20;23.10;;;-1.50;99.90;-2.70;100748;;;;567302;249;24054;-79
2023/12/07 02:44:05;;;;;;;40.60;20.20;;;-1.50;99.90;-2.70;100752;;;;567504;249;25101;-80
2023/12/07 02:46:33;;;;;;;37.83;20.13;;;-1.50;99.90;-2.70;100754;;;;567612;249;25104;-81
2023/12/07 02:49:01;;;;;;;38.23;18.47;;;-1.50;99.90;-2.70;100757;;;;563070;249;24040;-79
2023/12/07 02:51:29;;;;;;;41.40;21.47;;;-1.60;99.90;-2.60;100757;;;;567330;247;24084;-79
2023/12/07 02:53:57;;;;;;;45.37;23.33;;;-1.40;99.90;-2.70;100751;;;;568008;248;24089;-78
2023/12/07 02:56:25;;;;;;;39.30;21.70;;;-1.60;99.90;-2.70;100743;;;;569201;248;24078;-79
2023/12/07 02:58:53;;;;;;;41.37;21.53;;;-1.70;99.90;-2.70;100741;;;;568866;248;24060;-79
2023/12/07 03:01:20;;;;;;;46.70;20.93;;;-1.60;99.90;-2.70;100751;;;;567398;248;24051;-80
2023/12/07 03:03:48;;;;;;;46.23;22.13;;;-1.50;99.90;-2.70;100753;;;;568409;248;24057;-80
2023/12/07 03:06:17;;;;;;;41.83;23.30;;;-1.50;99.90;-2.70;100753;;;;568199;248;24101;-84
2023/12/07 03:08:45;;;;;;;46.63;22.40;;;-1.60;99.90;-2.70;100743;;;;578276;244;24059;-83
2023/12/07 03:11:12;;;;;;;40.57;21.97;;;-1.60;99.90;-2.70;100748;;;;567729;248;24129;-80
2023/12/07 03:13:40;;;;;;;44.67;23.03;;;-1.50;99.90;-2.70;100752;;;;567658;249;24109;-78
2023/12/07 03:16:11;;;;;;;46.17;23.00;;;-1.50;99.90;-2.70;100751;;;;567468;249;24046;-81
2023/12/07 03:18:39;;;;;;;50.27;24.03;;;-1.40;99.90;-2.70;100745;;;;567671;249;24094;-78
2023/12/07 03:21:04;;;;;;;38.40;21.10;;;-1.50;99.90;-2.60;100759;;;;567702;249;24065;-78
2023/12/07 03:23:33;;;;;;;45.87;23.27;;;-1.50;99.90;-2.60;100742;;;;577990;246;24055;-78
2023/12/07 03:26:01;;;;;;;45.50;20.73;;;-1.50;99.90;-2.60;100743;;;;567898;249;24163;-80
2023/12/07 03:28:29;;;;;;;38.20;21.60;;;-1.50;99.90;-2.60;100747;;;;567637;249;24077;-81
2023/12/07 03:30:57;;;;;;;46.00;26.27;;;-1.50;99.90;-2.60;100740;;;;562786;249;35196;-79
2023/12/07 03:33:25;;;;;;;11.17;5.87;;;-1.40;99.90;-2.60;100747;;;;567322;249;24060;-79
2023/12/07 03:35:53;;;;;;;38.77;20.70;;;-1.50;99.90;-2.60;100743;;;;567323;249;24052;-78
2023/12/07 03:38:21;;;;;;;49.47;26.80;;;-1.40;99.90;-2.60;100753;;;;562263;249;35299;-79
2023/12/07 03:40:49;;;;;;;20.40;8.87;;;-1.50;99.90;-2.60;100746;;;;566976;249;24070;-82
2023/12/07 03:43:17;;;;;;;39.20;19.57;;;-1.30;99.90;-2.50;100743;;;;567409;249;24087;-77
2023/12/07 03:45:49;;;;;;;47.03;24.53;;;-1.40;99.90;-2.50;100741;;;;567094;249;25117;-78
2023/12/07 03:48:13;;;;;;;38.60;21.83;;;-1.50;99.90;-2.50;100746;;;;567063;249;25118;-79
2023/12/07 03:50:42;;;;;;;42.80;21.50;;;-1.40;99.90;-2.50;100750;;;;567530;249;24069;-82
2023/12/07 03:53:10;;;;;;;40.00;21.90;;;-1.40;99.90;-2.50;100746;;;;567550;249;25096;-84
2023/12/07 03:55:39;;;;;;;39.33;21.33;;;-1.40;99.90;-2.50;100744;;;;567537;249;25138;-84
2023/12/07 03:58:08;;;;;;;43.17;23.03;;;-1.40;99.90;-2.50;100747;;;;567174;249;24070;-84
2023/12/07 04:00:39;;;;;;;40.07;21.37;;;-1.40;99.90;-2.60;100750;;;;567307;249;24087;-84
2023/12/07 04:03:04;;;;;;;40.17;21.73;;;-1.40;99.90;-2.50;100756;;;;566897;249;24063;-82
2023/12/07 04:05:32;;;;;;;44.70;21.70;;;-1.50;99.90;-2.60;100753;;;;567739;248;24033;-80
2023/12/07 04:08:01;;;;;;;38.93;20.53;;;-1.40;99.90;-2.50;100757;;;;564283;248;24061;-78
2023/12/07 04:10:29;;;;;;;38.40;18.60;;;-1.40;99.90;-2.50;100757;;;;568015;248;24070;-79
2023/12/07 04:13:01;;;;;;;44.70;22.33;;;-1.60;99.90;-2.60;100758;;;;568087;248;24055;-80
2023/12/07 04:15:25;;;;;;;39.07;20.67;;;-1.40;99.90;-2.50;100749;;;;567417;248;24140;-79
2023/12/07 04:17:53;;;;;;;41.30;22.10;;;-1.50;99.90;-2.50;100753;;;;567566;248;25078;-79
2023/12/07 04:20:21;;;;;;;47.10;27.95;;;-1.50;99.90;-2.60;100758;;;;563144;248;35170;-78
2023/12/07 04:22:48;;;;;;;18.67;7.97;;;-1.40;99.90;-2.60;100765;;;;568008;248;24079;-79
2023/12/07 04:25:16;;;;;;;28.52;13.52;;;-1.40;99.90;-2.50;100766;;;;562905;249;35101;-79
2023/12/07 04:27:44;;;;;;;15.00;9.53;;;-1.40;99.90;-2.50;100768;;;;567807;249;24054;-80
2023/12/07 04:30:13;;;;;;;13.50;7.80;;;-1.30;99.90;-2.50;100769;;;;567534;249;24078;-80
2023/12/07 04:32:41;;;;;;;18.60;10.13;;;-1.30;99.90;-2.50;100768;;;;566677;249;24031;-79
2023/12/07 04:35:09;;;;;;;33.63;17.13;;;-1.30;99.90;-2.50;100764;;;;567322;249;24089;-78
2023/12/07 04:37:37;;;;;;;38.87;20.33;;;-1.30;99.90;-2.50;100764;;;;567513;249;24110;-80
2023/12/07 04:40:09;;;;;;;39.77;19.93;;;-1.30;99.90;-2.50;100762;;;;567350;249;24071;-78
2023/12/07 04:42:32;;;;;;;41.23;20.57;;;-1.30;99.90;-2.50;100763;;;;575162;249;24056;-78
2023/12/07 04:45:00;;;;;;;37.23;18.50;;;0.10;99.90;-2.40;100762;;;;567186;249;24084;-79
2023/12/07 04:47:31;;;;;;;47.00;22.80;;;-1.40;99.90;-2.50;100761;;;;567117;249;24080;-80
2023/12/07 04:49:59;;;;;;;43.20;21.60;;;-1.40;99.90;-2.50;100764;;;;566973;249;24081;-77
2023/12/07 04:52:24;;;;;;;36.50;18.23;;;-1.30;99.90;-2.50;100768;;;;567467;249;24075;-78
2023/12/07 04:54:52;;;;;;;40.17;20.77;;;-1.40;99.90;-2.50;100764;;;;567694;249;24077;-81
2023/12/07 04:57:21;;;;;;;43.37;22.03;;;-1.40;99.90;-2.60;100769;;;;567635;249;25094;-80
2023/12/07 04:59:49;;;;;;;43.07;21.77;;;-1.40;99.90;-2.60;100770;;;;567434;249;24094;-79
2023/12/07 05:02:20;;;;;;;40.17;19.47;;;-1.50;99.90;-2.60;100778;;;;567227;249;24081;-79
2023/12/07 05:04:48;;;;;;;40.33;20.30;;;-1.40;99.90;-2.60;100772;;;;567034;249;24082;-82
2023/12/07 05:07:16;;;;;;;40.10;20.77;;;-1.50;99.90;-2.60;100785;;;;577628;246;24063;-85
2023/12/07 05:09:44;;;;;;;47.27;23.77;;;-1.40;99.90;-2.60;100783;;;;567293;249;24056;-84
2023/12/07 05:12:11;;;;;;;44.87;23.03;;;-1.50;99.90;-2.60;100787;;;;567815;249;24096;-82
2023/12/07 05:14:39;;;;;;;51.15;29.65;;;-1.50;99.90;-2.50;100791;;;;562956;249;35235;-83
2023/12/07 05:17:08;;;;;;;10.67;5.97;;;-1.40;99.90;-2.50;100797;;;;568245;248;24084;-85
2023/12/07 05:19:37;;;;;;;43.03;19.83;;;-1.40;99.90;-2.50;100801;;;;569034;248;25185;-82
2023/12/07 05:22:06;;;;;;;40.70;18.90;;;-1.40;99.90;-2.50;100792;;;;568133;248;24061;-80
2023/12/07 05:24:34;;;;;;;40.87;22.37;;;-1.40;99.90;-2.50;100798;;;;568109;248;24123;-84
2023/12/07 05:27:06;;;;;;;44.17;23.03;;;-1.40;99.90;-2.60;100797;;;;567840;248;24084;-80
2023/12/07 05:29:32;;;;;;;37.50;17.77;;;-1.40;99.90;-2.50;100806;;;;567683;248;24098;-83
2023/12/07 05:31:59;;;;;;;39.13;20.00;;;-1.40;99.90;-2.50;100805;;;;568268;248;24099;-83
2023/12/07 05:34:28;;;;;;;40.07;20.17;;;-1.40;99.90;-2.60;100807;;;;568103;248;24066;-84
2023/12/07 05:36:56;;;;;;;40.33;21.53;;;-1.40;99.90;-2.50;100805;;;;567810;249;24046;-84
2023/12/07 05:39:24;;;;;;;39.73;21.90;;;-1.40;99.90;-2.50;100808;;;;567835;249;24055;-83
2023/12/07 05:41:55;;;;;;;47.40;23.17;;;-1.40;99.90;-2.50;100797;;;;567918;249;24083;-83
2023/12/07 05:44:22;;;;;;;43.80;22.53;;;-1.40;99.90;-2.50;100797;;;;567134;249;24088;-84
2023/12/07 05:46:50;;;;;;;41.17;20.83;;;-1.40;99.90;-2.50;100803;;;;567506;249;24109;-84
2023/12/07 05:49:19;;;;;;;42.53;21.17;;;-1.30;99.90;-2.50;100810;;;;577657;246;24140;-83
2023/12/07 05:51:48;;;;;;;42.63;20.67;;;-1.30;99.90;-2.50;100810;;;;567360;249;24091;-79
2023/12/07 05:54:19;;;;;;;40.27;20.77;;;-1.30;99.90;-2.50;100806;;;;567834;249;24062;-84
2023/12/07 05:56:46;;;;;;;46.53;23.07;;;-1.40;99.90;-2.50;100807;;;;567671;249;24090;-79
2023/12/07 05:59:13;;;;;;;50.22;27.73;;;-1.30;99.90;-2.50;100815;;;;562658;249;35212;-75
2023/12/07 06:01:43;;;;;;;28.40;14.53;;;-1.30;99.90;-2.50;100812;;;;567124;249;24058;-78
2023/12/07 06:04:12;;;;;;;40.50;21.57;;;-1.40;99.90;-2.50;100813;;;;567279;249;25151;-84
2023/12/07 06:06:40;;;;;;;44.70;22.13;;;-1.40;99.90;-2.50;100816;;;;567410;249;24104;-80
2023/12/07 06:09:08;;;;;;;43.70;22.97;;;-1.40;99.90;-2.60;100821;;;;567302;249;24142;-79
2023/12/07 06:11:41;;;;;;;45.63;22.07;;;-1.40;99.90;-2.50;100815;;;;567516;249;24061;-79
2023/12/07 06:14:06;;;;;;;43.30;21.83;;;-1.40;99.90;-2.60;100807;;;;566993;249;24059;-81
2023/12/07 06:16:34;;;;;;;41.43;20.90;;;-1.40;99.90;-2.60;100820;;;;567349;249;24058;-79
2023/12/07 06:19:02;;;;;;;51.13;22.83;;;-1.20;99.90;-2.60;100825;;;;567316;249;24036;-77
2023/12/07 06:21:33;;;;;;;46.90;23.00;;;-1.40;99.90;-2.60;100825;;;;567698;249;24138;-83
2023/12/07 06:24:00;;;;;;;42.67;21.70;;;-1.40;99.90;-2.60;100825;;;;568229;249;25101;-78
2023/12/07 06:26:28;;;;;;;49.27;23.40;;;-1.50;99.90;-2.60;100829;;;;568224;249;24098;-84
2023/12/07 06:28:56;;;;;;;54.33;24.10;;;-1.40;99.90;-2.60;100831;;;;568728;248;24069;-81
2023/12/07 06:31:24;;;;;;;41.57;21.90;;;-1.60;99.90;-2.60;100843;;;;569171;248;24178;-78
2023/12/07 06:33:52;;;;;;;49.53;22.90;;;-1.50;99.90;-2.60;100834;;;;568098;248;24062;-79
2023/12/07 06:36:23;;;;;;;46.10;22.53;;;-1.40;99.90;-2.60;100847;;;;567911;248;24057;-81
2023/12/07 06:38:51;;;;;;;50.17;24.23;;;-1.30;99.90;-2.60;100844;;;;568138;248;24090;-80
2023/12/07 06:41:22;;;;;;;50.90;24.73;;;-1.40;99.90;-2.60;100837;;;;567793;248;24073;-81
2023/12/07 06:43:47;;;;;;;48.93;23.33;;;-1.30;99.90;-2.50;100837;;;;567522;248;24178;-79
2023/12/07 06:46:16;;;;;;;46.90;24.50;;;-1.40;99.90;-2.60;100843;;;;567738;248;24043;-78
2023/12/07 06:48:43;;;;;;;44.97;23.20;;;-1.40;99.90;-2.60;100846;;;;567399;249;24066;-80
2023/12/07 06:51:14;;;;;;;45.83;23.80;;;-1.40;99.90;-2.50;100844;;;;567617;249;24071;-80
2023/12/07 06:53:40;;;;;;;56.22;30.33;;;-1.30;99.90;-2.50;100845;;;;562372;249;35053;-79
2023/12/07 06:56:11;;;;;;;35.03;15.83;;;-1.30;99.90;-2.40;100854;;;;567355;249;24069;-79
2023/12/07 06:58:35;;;;;;;48.87;23.70;;;-1.30;99.90;-2.50;100855;;;;567440;249;24055;-78
2023/12/07 07:01:03;;;;;;;53.47;25.33;;;-1.30;99.90;-2.40;100846;;;;567856;249;24058;-81
2023/12/07 07:03:31;;;;;;;49.97;24.40;;;-1.30;99.90;-2.40;100854;;;;577591;246;24158;-79
2023/12/07 07:05:59;;;;;;;46.27;25.53;;;-1.20;99.90;-2.40;100856;;;;567286;249;24094;-84
2023/12/07 07:08:27;;;;;;;43.77;24.33;;;-1.30;99.90;-2.40;100861;;;;577376;244;24085;-80
2023/12/07 07:10:55;;;;;;;53.95;29.48;;;-1.20;99.90;-2.40;100862;;;;562576;249;35066;-79
2023/12/07 07:13:23;;;;;;;27.80;13.87;;;-1.20;99.90;-2.40;100861;;;;567698;249;24069;-83
2023/12/07 07:15:51;;;;;;;42.23;21.73;;;-1.20;99.90;-2.30;100858;;;;567859;249;24091;-85
2023/12/07 07:18:20;;;;;;;59.40;30.20;;;-1.20;99.90;-2.30;100862;;;;562447;249;35093;-81
2023/12/07 07:20:47;;;;;;;25.37;11.07;;;-1.10;99.90;-2.30;100862;;;;567413;249;24064;-82
2023/12/07 07:23:15;;;;;;;49.65;19.62;;;-1.10;99.90;-2.20;100864;;;;562260;249;35144;-80
2023/12/07 07:25:43;;;;;;;16.13;11.03;;;-1.10;99.90;-2.20;100877;;;;567627;249;24060;-83
2023/12/07 07:28:11;;;;;;;14.30;7.40;;;-1.00;99.90;-2.20;100864;;;;567507;249;25112;-79
2023/12/07 07:30:39;;;;;;;23.10;11.50;;;-1.00;99.90;-2.20;100865;;;;567598;249;24075;-78
2023/12/07 07:33:10;;;;;;;37.00;15.63;;;-1.00;99.90;-2.10;100860;;;;577604;246;24061;-79
2023/12/07 07:35:37;;;;;;;47.73;24.33;;;-1.00;99.90;-2.10;100865;;;;566617;249;24064;-79
2023/12/07 07:38:02;;;;;;;48.83;25.37;;;-0.90;99.90;-2.10;100865;;;;567158;249;24090;-79
2023/12/07 07:40:31;;;;;;;50.50;24.10;;;-0.90;99.90;-2.10;100863;;;;567854;248;26253;-82
2023/12/07 07:42:59;;;;;;;47.27;24.67;;;-0.70;99.90;-2.10;100864;;;;568241;248;24068;-81
2023/12/07 07:45:27;;;;;;;50.27;25.17;;;-0.90;99.90;-2.00;100867;;;;568116;248;24058;-83
2023/12/07 07:47:54;;;;;;;45.50;23.97;;;-0.90;99.90;-2.00;100862;;;;567977;248;24051;-81
2023/12/07 07:50:23;;;;;;;50.07;24.27;;;-0.80;99.90;-1.90;100857;;;;577916;245;24094;-79
2023/12/07 07:52:51;;;;;;;47.77;24.77;;;-0.80;99.90;-1.90;100861;;;;567659;248;24067;-81
2023/12/07 07:55:19;;;;;;;49.53;23.77;;;-0.70;99.90;-1.80;100861;;;;567640;248;24066;-81
2023/12/07 07:57:48;;;;;;;55.58;29.00;;;-0.60;99.90;-1.80;100858;;;;563278;248;35118;-83
2023/12/07 08:00:19;;;;;;;30.67;12.07;;;-0.50;99.90;-1.80;100871;;;;567811;249;24054;-84
2023/12/07 08:02:44;;;;;;;26.57;14.13;;;-0.60;99.90;-1.70;100880;;;;577722;249;24145;-85
2023/12/07 08:05:12;;;;;;;27.27;15.20;;;-0.60;99.90;-1.70;100875;;;;566232;249;24158;-84
2023/12/07 08:07:40;;;;;;;34.23;18.90;;;-0.50;99.90;-1.70;100872;;;;567411;249;24126;-83
2023/12/07 08:10:08;;;;;;;48.63;22.33;;;-0.50;99.90;-1.70;100881;;;;567402;249;24070;-84
2023/12/07 08:12:36;;;;;;;49.27;23.50;;;-0.50;99.90;-1.70;100872;;;;563227;247;24108;-84
2023/12/07 08:15:07;;;;;;;48.63;22.57;;;-0.50;99.90;-1.60;100875;;;;567518;249;24059;-80
2023/12/07 08:17:32;;;;;;;39.83;19.07;;;-0.50;99.90;-1.60;100878;;;;566649;249;24074;-80
2023/12/07 08:20:00;;;;;;;44.50;21.53;;;-0.40;99.90;-1.50;100869;;;;567305;249;24068;-80
2023/12/07 08:22:28;;;;;;;41.17;22.23;;;-0.40;99.90;-1.50;100870;;;;567184;249;24043;-80
2023/12/07 08:24:56;;;;;;;46.77;21.87;;;-0.30;99.90;-1.60;100866;;;;567111;249;24071;-79
2023/12/07 08:27:24;;;;;;;54.50;23.53;;;-0.40;99.90;-1.60;100873;;;;567490;249;25142;-82
2023/12/07 08:29:52;;;;;;;55.73;24.03;;;-0.40;99.90;-1.60;100857;;;;566350;249;24089;-84
2023/12/07 08:32:20;;;;;;;45.13;19.87;;;-0.40;99.90;-1.50;100868;;;;567562;249;24122;-80
2023/12/07 08:34:48;;;;;;;41.10;20.47;;;-0.30;99.90;-1.50;100868;;;;567541;249;24105;-82
2023/12/07 08:37:16;;;;;;;45.57;22.20;;;-0.10;99.90;-1.50;100869;;;;567283;249;24061;-80
2023/12/07 08:39:45;;;;;;;42.80;21.33;;;-0.30;99.90;-1.40;100875;;;;567186;249;24086;-83
2023/12/07 08:42:15;;;;;;;43.50;22.87;;;-0.30;99.90;-1.40;100879;;;;567033;249;24076;-84
2023/12/07 08:44:41;;;;;;;33.87;16.50;;;-0.30;99.90;-1.40;100881;;;;566610;249;24083;-84
2023/12/07 08:47:09;;;;;;;36.47;20.10;;;-0.30;99.90;-1.40;100886;;;;567154;249;24044;-81
2023/12/07 08:49:41;;;;;;;37.90;20.13;;;-0.20;99.90;-1.40;100887;;;;567242;249;24062;-83
2023/12/07 08:52:06;;;;;;;43.30;21.27;;;-0.30;99.90;-1.40;100877;;;;577470;247;24158;-82
2023/12/07 08:54:33;;;;;;;40.17;21.63;;;-0.30;99.90;-1.40;100882;;;;568268;248;24067;-80
2023/12/07 08:57:00;;;;;;;42.00;21.03;;;-0.30;99.90;-1.40;100890;;;;564274;247;24046;-81
2023/12/07 08:59:28;;;;;;;38.80;18.97;;;-0.20;99.90;-1.40;100893;;;;568421;248;24060;-80
2023/12/07 09:02:00;;;;;;;44.23;22.10;;;-0.10;99.90;-1.30;100894;;;;568178;248;24113;-80
2023/12/07 09:04:29;;;;;;;39.83;18.73;;;-0.10;99.90;-1.30;100907;;;;567991;248;24143;-82
2023/12/07 09:06:54;;;;;;;39.47;18.90;;;0.00;99.90;-1.20;100905;;;;567962;246;24080;-81
2023/12/07 09:09:25;;;;;;;42.73;20.60;;;0.00;99.90;-1.10;100915;;;;567680;248;24119;-79
2023/12/07 09:11:49;;;;;;;39.53;17.93;;;0.10;99.90;-1.00;100917;;;;567447;249;24072;-77
2023/12/07 09:14:17;;;;;;;21.80;10.50;;;0.10;99.90;-1.00;100920;;;;567619;249;24067;-79
2023/12/07 09:16:45;;;;;;;22.50;12.47;;;0.20;99.90;-0.90;100919;;;;567626;249;24046;-80
2023/12/07 09:19:13;;;;;;;27.27;9.97;;;0.20;99.90;-1.00;100912;;;;567702;249;24076;-78
2023/12/07 09:21:44;;;;;;;22.87;10.57;;;0.20;99.90;-1.00;100914;;;;567737;249;24082;-79
2023/12/07 09:24:09;;;;;;;18.60;9.37;;;0.20;99.90;-1.00;100915;;;;567671;249;24051;-79
2023/12/07 09:26:37;;;;;;;19.17;7.27;;;0.20;99.90;-1.00;100908;;;;567605;249;24067;-78
2023/12/07 09:29:09;;;;;;;14.83;9.43;;;0.20;99.90;-1.00;100911;;;;567614;249;24079;-78
2023/12/07 09:31:34;;;;;;;11.97;7.80;;;0.20;99.90;-1.00;100902;;;;567196;249;24126;-79
2023/12/07 09:34:08;;;;;;;20.83;11.03;;;0.20;99.90;-1.00;100894;;;;567517;249;24095;-78
2023/12/07 09:36:33;;;;;;;23.77;11.07;;;0.10;99.90;-1.00;100892;;;;567583;249;24114;-79
2023/12/07 09:39:01;;;;;;;19.67;10.43;;;0.20;99.90;-1.00;100896;;;;567140;249;24059;-79
2023/12/07 09:41:29;;;;;;;24.80;10.87;;;0.20;99.90;-0.90;100902;;;;567076;249;24115;-78
2023/12/07 09:43:57;;;;;;;27.27;12.37;;;0.20;99.90;-0.90;100896;;;;567307;249;24064;-79
2023/12/07 09:46:25;;;;;;;23.57;10.07;;;0.30;99.90;-0.80;100895;;;;567168;249;24108;-78
2023/12/07 09:48:54;;;;;;;20.00;9.70;;;0.40;99.90;-0.70;100897;;;;567231;249;24054;-77
2023/12/07 09:51:25;;;;;;;16.90;9.37;;;0.50;99.90;-0.60;100893;;;;567141;249;24030;-80
2023/12/07 09:53:50;;;;;;;20.70;9.47;;;0.50;99.90;-0.60;100887;;;;567422;248;24069;-79
2023/12/07 09:56:18;;;;;;;21.97;9.93;;;0.60;99.90;-0.50;100889;;;;565554;249;24060;-79
2023/12/07 09:58:46;;;;;;;20.67;7.77;;;0.70;99.90;-0.50;100879;;;;567537;249;24117;-79
2023/12/07 10:01:14;;;;;;;20.63;10.83;;;0.70;99.90;-0.50;100880;;;;567576;249;24110;-78
2023/12/07 10:03:42;;;;;;;21.33;8.00;;;0.70;99.90;-0.40;100886;;;;568215;248;24202;-80
2023/12/07 10:06:09;;;;;;;20.87;9.37;;;0.80;99.90;-0.30;100878;;;;568789;248;24083;-79
2023/12/07 10:08:37;;;;;;;23.00;10.70;;;0.90;99.90;-0.20;100880;;;;568110;248;24082;-79
2023/12/07 10:11:08;;;;;;;20.93;9.67;;;1.00;99.90;-0.20;100875;;;;567791;248;24108;-82
2023/12/07 10:13:40;;;;;;;20.93;11.40;;;0.90;99.90;-0.20;100877;;;;566020;248;24048;-80
2023/12/07 10:16:16;;;;;;;27.83;10.57;;;1.00;99.90;-0.20;100883;;;;567555;248;24119;-82
2023/12/07 10:18:43;;;;;;;20.00;8.97;;;1.00;99.90;-0.20;100876;;;;565942;248;24059;-81
2023/12/07 10:21:11;;;;;;;26.07;11.50;;;1.00;99.90;-0.10;100884;;;;567586;249;24077;-80
2023/12/07 10:23:40;;;;;;;19.87;8.67;;;1.10;99.90;0.00;100882;;;;567517;249;24093;-79
2023/12/07 10:26:11;;;;;;;25.57;12.30;;;1.20;99.90;0.00;100883;;;;565314;249;24079;-80
2023/12/07 10:28:39;;;;;;;16.97;8.87;;;1.30;99.90;0.00;100871;;;;567880;249;24087;-78
2023/12/07 10:31:04;;;;;;;23.43;10.20;;;1.20;99.90;0.00;100869;;;;567780;249;24066;-77
2023/12/07 10:33:32;;;;;;;25.23;11.50;;;1.20;99.90;0.00;100871;;;;568046;249;24091;-79
2023/12/07 10:36:00;;;;;;;20.57;9.93;;;1.10;99.90;0.00;100873;;;;566250;249;24051;-81
2023/12/07 10:38:27;;;;;;;15.23;9.77;;;1.00;99.90;-0.20;100869;;;;567675;249;24054;-78
2023/12/07 10:40:55;;;;;;;24.47;10.40;;;1.00;99.90;-0.20;100879;;;;567260;249;24081;-80
2023/12/07 10:43:23;;;;;;;20.37;9.73;;;0.90;99.90;-0.30;100878;;;;564444;249;24071;-80
2023/12/07 10:45:51;;;;;;;24.93;9.63;;;0.80;99.90;-0.30;100867;;;;567601;249;25101;-80
2023/12/07 10:48:20;;;;;;;13.87;9.60;;;0.80;99.90;-0.30;100873;;;;567373;249;24078;-82
2023/12/07 10:50:48;;;;;;;13.90;5.97;;;0.90;99.90;-0.20;100867;;;;566854;249;24123;-82
2023/12/07 10:53:19;;;;;;;27.53;10.83;;;0.90;99.90;-0.30;100863;;;;565266;249;24071;-81
2023/12/07 10:55:48;;;;;;;22.47;10.60;;;0.90;99.90;-0.30;100870;;;;566919;249;25125;-84
2023/12/07 10:58:15;;;;;;;22.80;9.57;;;1.00;99.90;-0.20;100870;;;;565418;249;24067;-82
2023/12/07 11:00:46;;;;;;;22.53;8.43;;;1.10;99.90;-0.10;100867;;;;565793;249;24056;-85